Time;durP1;ratioP1;P1;durP2;ratioP2;P2;SDS_P1;SDS_P2;PMS_P1;PMS_P2;Temp;Humidity;BMP_temperature;BMP_pressure;BME280_temperature;BME280_humidity;BME280_pressure;Samples;Min_cycle;Max_cycle;Signal;HPM_P1;HPM_P2
2022/06/02 00:01:20;;;;;;;;;2.00;2.00;;;;;17.75;68.15;101141.00;5028214;28;47937;-94
2022/06/02 00:04:15;;;;;;;;;0.67;0.67;;;;;17.71;68.01;101143.53;5038760;28;45610;-95
2022/06/02 00:06:51;;;;;;;;;1.67;1.67;;;;;17.65;68.31;101131.91;5056554;28;45429;-93
2022/06/02 00:09:52;;;;;;;;;2.00;2.00;;;;;17.55;68.24;101124.59;5032176;28;45423;-93
2022/06/02 00:12:26;;;;;;;;;1.67;1.67;;;;;17.63;68.50;101131.00;5028867;28;47198;-94
2022/06/02 00:14:55;;;;;;;;;0.00;0.00;;;;;17.61;68.70;101121.19;5027485;28;45680;-93
2022/06/02 00:17:48;;;;;;;;;1.00;1.00;;;;;17.59;68.64;101120.28;5028363;28;45382;-95
2022/06/02 00:20:54;;;;;;;;;2.00;2.00;;;;;17.55;68.64;101121.94;5030861;28;45639;-95
2022/06/02 00:23:36;;;;;;;;;1.67;1.67;;;;;17.50;68.68;101113.00;4937650;28;47523;-95
2022/06/02 00:26:08;;;;;;;;;1.33;1.33;;;;;17.45;69.23;101099.63;4939144;28;45491;-95
2022/06/02 00:28:57;;;;;;;;;1.67;1.67;;;;;17.47;69.13;101107.63;4938227;28;45378;-94
2022/06/02 00:31:33;;;;;;;;;2.00;2.00;;;;;17.42;69.46;101099.59;4937408;28;45499;-94
2022/06/02 00:34:07;;;;;;;;;1.00;1.00;;;;;17.42;69.02;101105.75;4937526;28;47010;-94
2022/06/02 00:36:40;;;;;;;;;3.33;2.00;;;;;17.36;69.52;101088.81;4955098;28;45601;-95
2022/06/02 00:39:08;;;;;;;;;3.00;2.00;;;;;17.34;69.49;101078.19;4953120;28;45300;-95
2022/06/02 00:41:59;;;;;;;;;3.67;2.67;;;;;17.36;69.58;101081.75;4958672;28;45287;-95
2022/06/02 00:44:48;;;;;;;;;2.00;2.00;;;;;17.32;69.94;101069.25;4945789;28;47123;-94
2022/06/02 00:47:37;;;;;;;;;2.00;2.00;;;;;17.25;69.99;101062.03;4946146;28;45438;-94
2022/06/02 00:50:22;;;;;;;;;5.67;3.67;;;;;17.23;69.90;101061.09;4943510;28;45445;-95
2022/06/02 00:53:01;;;;;;;;;2.00;2.00;;;;;17.19;70.08;101057.47;4929754;28;45495;-95
2022/06/02 00:58:59;;;;;;;;;2.00;2.00;;;;;17.12;70.13;101032.53;4921686;28;45508;-95
2022/06/02 01:01:33;;;;;;;;;3.00;3.00;;;;;17.01;70.59;101020.81;5024077;28;45493;-94
2022/06/02 01:04:02;;;;;;;;;3.33;3.33;;;;;16.99;70.86;101012.81;5034510;28;45515;-94
2022/06/02 01:06:52;;;;;;;;;2.67;2.67;;;;;16.97;70.83;101010.13;5018139;28;47150;-94
2022/06/02 01:09:34;;;;;;;;;2.00;2.00;;;;;16.96;70.78;101010.06;4998032;28;45797;-94
2022/06/02 01:12:39;;;;;;;;;4.00;3.00;;;;;16.93;70.96;101007.38;4999564;28;45448;-94
2022/06/02 01:15:25;;;;;;;;;3.00;3.00;;;;;16.90;71.00;101004.66;5014851;28;45483;-94
2022/06/02 01:18:12;;;;;;;;;5.67;3.33;;;;;16.88;71.89;100963.97;5016190;28;47373;-95
2022/06/02 01:20:56;;;;;;;;;3.00;3.00;;;;;16.77;71.48;100971.66;5013906;28;45970;-93
2022/06/02 01:24:00;;;;;;;;;3.33;3.33;;;;;16.71;71.63;100965.34;5027316;28;45312;-94
2022/06/02 01:26:34;;;;;;;;;3.33;3.33;;;;;16.71;71.56;100960.06;5016519;28;45620;-93
2022/06/02 01:29:18;;;;;;;;;3.00;3.00;;;;;16.68;71.97;100954.66;5019117;28;48255;-94
2022/06/02 01:32:14;;;;;;;;;3.00;2.33;;;;;16.63;72.12;100953.66;5021487;28;45373;-93
2022/06/02 01:34:42;;;;;;;;;2.00;2.00;;;;;16.59;72.46;100931.53;5021466;28;45267;-94
2022/06/02 01:37:18;;;;;;;;;4.33;4.00;;;;;16.56;72.22;100936.75;5041740;28;45455;-95
2022/06/02 01:40:09;;;;;;;;;3.00;3.00;;;;;16.53;72.38;100934.91;5000187;28;47226;-94
2022/06/02 01:42:34;;;;;;;;;2.33;2.33;;;;;16.49;72.59;100922.44;4998406;28;45338;-94
2022/06/02 01:45:18;;;;;;;;;3.00;3.00;;;;;16.44;72.38;100929.38;5030378;28;45409;-95
2022/06/02 01:47:50;;;;;;;;;2.00;2.00;;;;;16.38;72.63;100913.34;5021080;28;45199;-93
2022/06/02 01:50:16;;;;;;;;;2.33;2.33;;;;;16.38;72.92;100929.25;5017115;28;47312;-94
2022/06/02 01:52:54;;;;;;;;;6.00;3.00;;;;;16.35;72.93;100935.34;5024852;28;45586;-93
2022/06/02 01:55:38;;;;;;;;;2.00;2.00;;;;;16.31;73.16;100918.47;5056798;28;45427;-94
2022/06/02 01:58:40;;;;;;;;;5.00;3.00;;;;;16.21;73.30;100899.72;5054215;28;45430;-94
2022/06/02 02:01:25;;;;;;;;;3.00;3.00;;;;;16.18;73.55;100893.44;5041495;28;48278;-93
2022/06/02 02:04:00;;;;;;;;;3.00;2.00;;;;;16.23;73.79;100906.84;5079385;27;45309;-94
2022/06/02 02:06:52;;;;;;;;;2.00;2.00;;;;;16.16;73.65;100891.63;5085705;27;44790;-93
2022/06/02 02:09:43;;;;;;;;;2.67;2.67;;;;;16.16;74.01;100892.53;5068878;27;44977;-94
2022/06/02 02:12:37;;;;;;;;;3.33;3.33;;;;;16.07;74.14;100869.38;5057417;28;47377;-93
2022/06/02 02:15:15;;;;;;;;;4.67;4.67;;;;;16.07;74.16;100872.03;5057247;28;45399;-93
2022/06/02 02:18:10;;;;;;;;;5.00;4.00;;;;;16.03;74.03;100864.81;5063785;28;45538;-95
2022/06/02 02:21:04;;;;;;;;;3.33;3.00;;;;;15.95;74.50;100843.44;5063993;28;45335;-94
2022/06/02 02:23:52;;;;;;;;;5.67;3.67;;;;;15.85;74.72;100836.13;5075555;28;47989;-94
2022/06/02 02:26:26;;;;;;;;;6.00;4.00;;;;;15.85;74.90;100831.75;5075859;28;45446;-94
2022/06/02 02:29:22;;;;;;;;;2.00;2.00;;;;;15.78;75.10;100821.84;5056197;28;45496;-94
2022/06/02 02:32:15;;;;;;;;;4.33;4.00;;;;;15.79;75.18;100828.06;5052966;28;45502;-94
2022/06/02 02:34:52;;;;;;;;;4.00;4.00;;;;;15.81;75.46;100828.97;5042312;28;47137;-94
2022/06/02 02:37:28;;;;;;;;;2.33;2.33;;;;;15.75;75.25;100827.97;5051985;28;45507;-95
2022/06/02 02:40:25;;;;;;;;;4.67;3.00;;;;;15.77;75.20;100827.13;5055711;28;45463;-93
2022/06/02 02:43:06;;;;;;;;;5.00;4.00;;;;;15.60;75.58;100804.66;5052224;28;45563;-94
2022/06/02 02:45:51;;;;;;;;;4.00;4.00;;;;;15.69;75.78;100824.28;5055989;28;47390;-95
2022/06/02 02:48:45;;;;;;;;;3.00;3.00;;;;;15.59;75.58;100818.75;5049793;28;45478;-93
2022/06/02 02:51:33;;;;;;;;;3.33;3.33;;;;;15.61;75.89;100818.78;5036567;28;45348;-93
2022/06/02 02:54:18;;;;;;;;;4.00;3.00;;;;;15.59;76.18;100815.22;5053758;28;45408;-93
2022/06/02 02:56:57;;;;;;;;;4.00;4.00;;;;;15.44;76.26;100791.88;5039616;28;47662;-94
2022/06/02 02:59:36;;;;;;;;;5.00;3.33;;;;;15.53;76.31;100814.22;5055662;28;45379;-93
2022/06/02 03:02:40;;;;;;;;;4.00;3.33;;;;;15.48;76.21;100810.53;5073129;28;45218;-94
2022/06/02 03:05:23;;;;;;;;;3.67;3.67;;;;;15.37;76.62;100794.38;4994225;28;45485;-93
2022/06/02 03:07:49;;;;;;;;;5.67;4.00;;;;;15.39;76.82;100799.69;5004432;28;47361;-94
2022/06/02 03:10:27;;;;;;;;;5.33;2.67;;;;;15.30;76.66;100782.75;5021837;28;46109;-93
2022/06/02 03:13:26;;;;;;;;;5.00;4.00;;;;;15.37;76.74;100788.19;5004564;28;45472;-91
2022/06/02 03:15:59;;;;;;;;;4.00;4.00;;;;;15.29;76.98;100783.59;5003011;28;46093;-93
2022/06/02 03:18:39;;;;;;;;;3.33;2.00;;;;;15.30;76.79;100792.44;5002196;28;48258;-94
2022/06/02 03:21:04;;;;;;;;;5.67;4.00;;;;;15.26;77.21;100779.97;5018714;28;45425;-93
2022/06/02 03:24:05;;;;;;;;;5.67;4.00;;;;;15.26;77.17;100777.31;4999306;28;45453;-93
2022/06/02 03:26:52;;;;;;;;;5.33;5.00;;;;;15.23;77.22;100785.22;4994004;28;45726;-94
2022/06/02 03:29:41;;;;;;;;;7.00;4.33;;;;;15.14;77.25;100783.19;4993441;28;47037;-93
2022/06/02 03:32:28;;;;;;;;;3.00;3.00;;;;;15.18;77.48;100793.00;4995757;28;45465;-93
2022/06/02 03:35:02;;;;;;;;;5.00;5.00;;;;;15.13;77.68;100782.28;4991539;28;45632;-94
2022/06/02 03:37:46;;;;;;;;;4.00;4.00;;;;;15.14;77.57;100786.75;4997902;28;45416;-94
2022/06/02 03:40:52;;;;;;;;;5.00;3.00;;;;;15.12;77.75;100798.13;5010912;28;45430;-93
2022/06/02 03:43:37;;;;;;;;;3.67;3.67;;;;;15.03;77.84;100785.53;5034567;28;45370;-93
2022/06/02 03:46:12;;;;;;;;;3.33;3.00;;;;;15.08;77.93;100797.13;5036088;28;45663;-93
2022/06/02 03:49:03;;;;;;;;;4.00;4.00;;;;;15.08;78.02;100798.03;5054597;28;45356;-92
2022/06/02 03:52:01;;;;;;;;;4.00;4.00;;;;;14.91;77.67;100781.72;5054096;28;48134;-93
2022/06/02 03:54:38;;;;;;;;;5.33;4.33;;;;;15.01;78.28;100797.81;5057537;28;45975;-94
2022/06/02 03:57:30;;;;;;;;;5.33;4.00;;;;;15.00;78.39;100790.75;5045829;28;45408;-93
2022/06/02 04:00:15;;;;;;;;;4.33;2.00;;;;;14.89;78.48;100758.75;5063251;28;45453;-94
2022/06/02 04:02:51;;;;;;;;;2.67;2.67;;;;;14.92;78.61;100769.41;5062962;28;48414;-94
2022/06/02 04:06:00;;;;;;;;;5.00;5.00;;;;;14.89;78.65;100759.66;5061369;28;45337;-94
2022/06/02 04:08:38;;;;;;;;;4.33;4.00;;;;;14.94;78.65;100778.25;5072330;28;45277;-94
2022/06/02 04:11:28;;;;;;;;;8.00;5.00;;;;;14.92;78.77;100787.91;5053095;28;45319;-94
2022/06/02 04:14:14;;;;;;;;;3.00;3.00;;;;;14.78;78.92;100758.41;5053398;28;47165;-94
2022/06/02 04:17:10;;;;;;;;;5.67;4.33;;;;;14.87;79.03;100776.31;5053415;28;45466;-94
2022/06/02 04:23:13;;;;;;;;;5.67;3.33;;;;;14.96;79.28;100782.75;5030027;28;45647;-94
2022/06/02 04:25:51;;;;;;;;;4.67;4.33;;;;;14.99;79.35;100783.66;5041654;28;48373;-94
2022/06/02 04:28:23;;;;;;;;;4.33;4.33;;;;;15.00;79.48;100777.53;5040794;28;45298;-94
2022/06/02 04:31:16;;;;;;;;;5.00;4.00;;;;;15.10;79.60;100784.84;5054224;28;45357;-94
2022/06/02 04:34:00;;;;;;;;;5.67;5.67;;;;;15.13;79.68;100782.28;5051099;28;45383;-94
2022/06/02 04:36:57;;;;;;;;;3.00;3.00;;;;;15.23;79.87;100785.22;5052301;28;48093;-94
2022/06/02 04:39:41;;;;;;;;;4.00;4.00;;;;;15.30;79.50;100798.63;5051111;28;45970;-94
2022/06/02 04:42:24;;;;;;;;;5.00;4.00;;;;;15.28;79.99;100780.94;5052490;28;45484;-94
2022/06/02 04:45:03;;;;;;;;;4.33;4.33;;;;;15.34;79.52;100777.53;5069099;28;45583;-93
2022/06/02 04:47:51;;;;;;;;;5.67;4.00;;;;;15.55;79.34;100792.16;5058548;28;48497;-95
2022/06/02 04:50:41;;;;;;;;;4.33;4.00;;;;;15.62;79.37;100795.00;5059894;28;45354;-95
2022/06/02 04:53:10;;;;;;;;;4.00;3.00;;;;;15.66;79.13;100808.31;5063170;28;45393;-95
2022/06/02 04:55:51;;;;;;;;;6.33;5.00;;;;;15.68;79.13;100801.31;5048119;28;45395;-94
2022/06/02 04:58:33;;;;;;;;;6.00;4.67;;;;;15.71;78.78;100780.22;5043401;28;45547;-94
2022/06/02 05:01:08;;;;;;;;;7.00;5.00;;;;;15.85;79.08;100797.31;5070053;28;45770;-93
2022/06/02 05:04:09;;;;;;;;;4.33;4.33;;;;;15.91;78.84;100798.34;5054193;28;45415;-96
2022/06/02 05:06:55;;;;;;;;;6.33;5.00;;;;;15.92;78.90;100790.44;5034425;28;45453;-95
2022/06/02 05:09:35;;;;;;;;;4.67;4.67;;;;;15.93;78.50;100793.97;5050818;28;47421;-94
2022/06/02 05:12:07;;;;;;;;;6.67;5.33;;;;;16.00;78.84;100797.69;5053266;28;45582;-95
2022/06/02 05:14:56;;;;;;;;;5.33;5.33;;;;;15.93;78.89;100793.97;5044053;28;45902;-95
2022/06/02 05:17:31;;;;;;;;;5.00;5.00;;;;;15.92;78.68;100800.13;5011287;28;45524;-94
2022/06/02 05:20:14;;;;;;;;;6.00;5.00;;;;;15.93;78.79;100802.81;4990082;28;47079;-95
2022/06/02 05:23:01;;;;;;;;;8.00;4.67;;;;;15.91;78.85;100798.34;4996675;28;46005;-94
2022/06/02 05:25:43;;;;;;;;;4.33;4.33;;;;;15.93;78.67;100807.19;4989792;28;45714;-94
2022/06/02 05:28:15;;;;;;;;;7.00;5.67;;;;;16.00;78.93;100800.31;4979701;28;45393;-94
2022/06/02 05:31:01;;;;;;;;;4.33;3.00;;;;;16.04;78.96;100788.94;4996163;28;46360;-94
2022/06/02 05:34:01;;;;;;;;;6.00;4.67;;;;;16.16;79.08;100797.19;5011492;28;45536;-95
2022/06/02 05:36:46;;;;;;;;;5.00;5.00;;;;;16.26;79.01;100808.03;4976773;28;45377;-94
2022/06/02 05:39:56;;;;;;;;;5.00;4.00;;;;;16.25;79.10;100793.88;4997216;28;45966;-95
2022/06/02 05:42:36;;;;;;;;;7.00;6.00;;;;;16.39;78.86;100806.53;4925827;28;47467;-95
2022/06/02 05:45:34;;;;;;;;;5.00;5.00;;;;;16.34;78.71;100792.31;4926258;28;45717;-95
2022/06/02 05:48:00;;;;;;;;;5.67;5.67;;;;;16.46;78.71;100805.81;4929817;28;45435;-94
2022/06/02 05:50:50;;;;;;;;;7.00;5.33;;;;;16.42;78.55;100796.00;4947515;28;44758;-94
2022/06/02 05:53:46;;;;;;;;;1.00;1.00;;;;;16.55;78.66;100821.00;4958057;28;47097;-95
2022/06/02 05:56:32;;;;;;;;;6.67;5.33;;;;;16.50;78.59;100804.09;4996302;28;44890;-96
2022/06/02 05:59:18;;;;;;;;;6.00;5.67;;;;;16.57;78.82;100805.16;4966431;28;45548;-96
2022/06/02 06:01:56;;;;;;;;;5.00;5.00;;;;;16.59;78.55;100811.38;4957217;28;45604;-94
2022/06/02 06:04:41;;;;;;;;;5.00;5.00;;;;;16.60;78.41;100819.34;4968178;28;48184;-95
2022/06/02 06:07:14;;;;;;;;;5.67;5.33;;;;;16.54;78.61;100805.97;4941516;28;45306;-95
2022/06/02 06:09:50;;;;;;;;;5.33;5.33;;;;;16.65;78.63;100830.03;4958709;28;45368;-95
2022/06/02 06:12:30;;;;;;;;;8.00;5.67;;;;;16.72;78.60;100823.13;4971144;28;45579;-96
2022/06/02 06:15:17;;;;;;;;;8.00;4.33;;;;;16.75;78.49;100817.91;4962106;28;47345;-96
2022/06/02 06:18:55;;;;;;;;;6.67;6.67;;;;;16.79;78.47;100827.69;4955707;28;45452;-95
2022/06/02 06:21:47;;;;;;;;;6.67;6.00;;;;;16.86;78.28;100824.31;4953415;28;45278;-95
2022/06/02 06:24:40;;;;;;;;;7.33;6.00;;;;;16.89;78.19;100822.56;4952849;28;45493;-92
2022/06/02 06:27:31;;;;;;;;;4.33;4.33;;;;;16.89;78.71;100822.56;4970347;28;47366;-93
2022/06/02 06:30:19;;;;;;;;;5.67;5.67;;;;;16.86;78.35;100826.94;4972966;28;45325;-93
2022/06/02 06:33:20;;;;;;;;;7.33;7.00;;;;;16.86;78.15;100811.03;4963215;28;44835;-94
2022/06/02 06:36:27;;;;;;;;;7.67;6.67;;;;;16.98;78.82;100806.88;4902482;28;45619;-93
2022/06/02 06:39:13;;;;;;;;;6.00;6.00;;;;;17.14;78.66;100812.44;4904194;29;48097;-94
2022/06/02 06:41:59;;;;;;;;;9.33;7.33;;;;;17.29;78.98;100795.97;4902074;29;45873;-93
2022/06/02 06:44:44;;;;;;;;;7.00;6.00;;;;;17.47;78.67;100807.78;4897615;29;45523;-93
2022/06/02 06:47:14;;;;;;;;;10.00;7.00;;;;;17.62;78.80;100809.81;4879376;29;45593;-93
2022/06/02 06:50:10;;;;;;;;;6.00;6.00;;;;;17.70;78.72;100810.84;4904384;28;48023;-95
2022/06/02 06:53:13;;;;;;;;;9.67;8.33;;;;;17.87;78.31;100815.53;4965767;28;46165;-93
2022/06/02 06:56:01;;;;;;;;;8.67;7.67;;;;;17.99;78.21;100817.47;4972904;28;46576;-95
2022/06/02 06:58:44;;;;;;;;;10.00;9.00;;;;;18.10;77.93;100825.59;4963803;28;45465;-93
2022/06/02 07:01:18;;;;;;;;;7.67;6.00;;;;;18.22;78.13;100840.00;4976764;28;48131;-94
2022/06/02 07:04:08;;;;;;;;;8.00;8.00;;;;;18.28;78.01;100834.75;4975348;28;45966;-94
2022/06/02 07:06:56;;;;;;;;;7.00;6.00;;;;;18.40;77.54;100857.97;4970182;28;45495;-94
2022/06/02 07:09:31;;;;;;;;;8.33;7.67;;;;;18.52;77.43;100857.25;4978216;28;45344;-94
2022/06/02 07:14:58;;;;;;;;;9.33;7.67;;;;;18.72;77.49;100867.25;5040709;28;45340;-94
2022/06/02 07:17:54;;;;;;;;;7.67;7.67;;;;;18.81;77.21;100882.44;5068868;28;45411;-94
2022/06/02 07:20:35;;;;;;;;;10.33;9.00;;;;;18.96;76.80;100901.28;5065161;28;45581;-96
2022/06/02 07:23:15;;;;;;;;;8.00;8.00;;;;;19.07;77.18;100905.84;5045645;28;47153;-93
2022/06/02 07:25:57;;;;;;;;;7.00;7.00;;;;;19.21;77.27;100922.00;5047422;28;45901;-94
2022/06/02 07:28:46;;;;;;;;;7.67;7.67;;;;;19.34;76.31;100935.44;5054812;28;45630;-94
2022/06/02 07:31:24;;;;;;;;;7.00;7.00;;;;;19.49;76.32;100948.03;5036744;28;45611;-94
2022/06/02 07:33:58;;;;;;;;;6.00;6.00;;;;;19.60;76.33;100959.69;5068493;28;47353;-95
2022/06/02 07:39:58;;;;;;;;;8.00;7.00;;;;;19.84;75.93;100992.78;5183975;22;45347;-96
2022/06/02 07:42:35;;;;;;;;;7.33;7.33;;;;;20.08;76.06;101004.56;5060323;28;45552;-96
2022/06/02 07:45:31;;;;;;;;;7.33;7.33;;;;;20.32;75.32;101034.16;5051466;28;45494;-96
2022/06/02 07:48:24;;;;;;;;;6.00;6.00;;;;;20.47;75.30;101052.06;4991261;28;46667;-96
2022/06/02 07:51:01;;;;;;;;;7.67;6.00;;;;;20.53;75.24;101080.56;4977701;28;45409;-95
2022/06/02 07:54:08;;;;;;;;;8.67;7.00;;;;;20.64;74.53;101102.84;4993796;28;45456;-95
2022/06/02 07:57:07;;;;;;;;;9.67;7.33;;;;;20.72;74.48;101118.06;4918487;28;46796;-95
2022/06/02 07:59:42;;;;;;;;;6.00;6.00;;;;;20.69;73.71;101166.94;4910973;28;45588;-95
2022/06/02 08:02:23;;;;;;;;;7.00;5.33;;;;;20.60;73.35;101166.81;4915487;28;45471;-95
2022/06/02 08:05:08;;;;;;;;;6.00;6.00;;;;;20.54;73.11;101173.88;4916910;28;45667;-94
2022/06/02 08:07:51;;;;;;;;;4.67;4.67;;;;;20.64;73.78;101160.66;4932617;28;45491;-94
2022/06/02 08:10:26;;;;;;;;;6.00;6.00;;;;;20.90;73.66;101164.44;4924619;28;45348;-96
2022/06/02 08:13:02;;;;;;;;;6.00;6.00;;;;;21.30;73.86;101155.91;4929074;28;45384;-95
2022/06/02 08:15:45;;;;;;;;;6.33;6.33;;;;;21.81;73.54;101189.13;4927183;28;45459;-94
2022/06/02 08:18:30;;;;;;;;;5.67;5.00;;;;;22.21;72.58;101212.53;4929371;28;45596;-94
2022/06/02 08:21:28;;;;;;;;;5.00;5.00;;;;;22.53;71.60;101245.63;4929741;28;44987;-95
2022/06/02 08:24:12;;;;;;;;;4.67;4.67;;;;;22.75;70.54;101272.47;4940814;28;45336;-94
2022/06/02 08:26:49;;;;;;;;;6.00;6.00;;;;;22.92;70.48;101293.91;5003153;28;45358;-96
2022/06/02 08:29:53;;;;;;;;;5.00;5.00;;;;;23.04;70.10;101300.22;4986949;28;46078;-93
2022/06/02 08:32:33;;;;;;;;;3.67;3.67;;;;;23.17;69.92;101302.00;5004861;28;49675;-95
2022/06/02 08:35:16;;;;;;;;;4.00;4.00;;;;;23.28;69.48;101322.53;5058097;28;45584;-91
2022/06/02 08:37:53;;;;;;;;;5.00;4.33;;;;;23.31;69.00;101331.47;5240657;22;45739;-94
2022/06/02 08:40:18;;;;;;;;;5.00;5.00;;;;;23.37;68.57;101344.00;5071925;28;46598;-96
2022/06/02 08:43:13;;;;;;;;;4.67;3.67;;;;;23.47;68.01;101352.94;5348548;22;45433;-94
2022/06/02 08:46:10;;;;;;;;;4.00;4.00;;;;;23.55;68.12;101351.16;5191535;22;45381;-93
2022/06/02 08:48:50;;;;;;;;;5.00;5.00;;;;;23.49;67.77;101339.53;4986190;28;44955;-93
2022/06/02 08:51:24;;;;;;;;;6.33;5.00;;;;;23.54;67.61;101359.22;4991701;28;46848;-94
2022/06/02 08:54:23;;;;;;;;;4.00;3.00;;;;;23.43;67.15;101370.78;5032550;28;45619;-95
2022/06/02 09:12:53;;;;;;;;;4.00;4.00;;;;;24.65;65.91;101379.63;5701713;22;46293;-96
2022/06/02 09:15:40;;;;;;;;;4.00;4.00;;;;;24.86;65.27;101384.03;5075701;27;45305;-96
2022/06/02 09:28:40;;;;;;;;;3.33;3.33;;;;;25.26;64.41;101379.38;5850171;22;46299;-96
2022/06/02 09:31:31;;;;;;;;;4.00;4.00;;;;;25.56;63.59;101420.34;5341943;22;45113;-96
2022/06/02 09:34:29;;;;;;;;;5.00;4.00;;;;;25.74;63.25;101415.81;5290947;22;46695;-96
2022/06/02 10:06:22;;;;;;;;;3.33;3.33;;;;;33.85;56.42;101466.72;5466178;22;45478;-96
2022/06/02 10:14:30;;;;;;;;;2.00;2.00;;;;;37.30;54.54;101468.19;5779601;22;46057;-94
2022/06/02 10:33:04;;;;;;;;;2.33;2.33;;;;;44.58;44.18;101475.63;5895109;22;46078;-94
2022/06/02 10:40:58;;;;;;;;;2.33;2.33;;;;;48.62;39.14;101489.28;5341238;22;45378;31
2022/06/02 10:44:01;;;;;;;;;2.00;2.00;;;;;49.68;37.47;101482.44;5097699;23;45419;31
2022/06/02 10:47:20;;;;;;;;;0.00;0.00;;;;;50.88;36.80;101472.56;4978683;28;45931;-96
2022/06/02 10:50:00;;;;;;;;;6.33;4.33;;;;;51.97;35.08;101478.22;4918882;28;45565;-96
2022/06/02 10:52:47;;;;;;;;;5.67;5.67;;;;;52.80;33.43;101483.91;4990592;22;45068;-96
2022/06/02 11:03:53;;;;;;;;;44.00;33.25;;;;;55.55;31.60;101452.56;5041527;22;45137;-96
2022/06/02 11:06:49;;;;;;;;;21.00;15.67;;;;;56.21;30.57;101466.81;4964630;28;45620;-96
2022/06/02 11:14:28;;;;;;;;;22.25;21.00;;;;;55.03;27.66;101465.28;5125266;23;44950;-96
2022/06/02 11:17:35;;;;;;;;;1.00;1.00;;;;;54.15;27.94;101454.56;5010675;28;45476;-94
2022/06/02 11:20:20;;;;;;;;;6.00;6.00;;;;;52.41;27.44;101455.19;5023002;28;45325;-96
2022/06/02 11:23:27;;;;;;;;;2.33;2.33;;;;;50.41;28.39;101452.88;5028994;28;45163;-96
2022/06/02 11:26:22;;;;;;;;;5.33;5.33;;;;;48.25;29.29;101446.84;5321565;23;46174;-96
2022/06/02 11:29:27;;;;;;;;;2.00;2.00;;;;;47.26;29.55;101434.69;5032956;28;45623;-96
2022/06/02 11:32:10;;;;;;;;;31.25;29.50;;;;;48.46;30.71;101426.03;4942308;28;45202;-96
2022/06/02 11:35:16;;;;;;;;;2.00;1.00;;;;;49.54;30.26;101431.00;4952192;28;46349;-95
2022/06/02 11:37:56;;;;;;;;;0.00;0.00;;;;;50.25;29.74;101432.34;4939245;28;45263;-96
2022/06/02 11:41:06;;;;;;;;;4.00;4.00;;;;;51.87;29.28;101426.41;5019436;23;45441;-94
2022/06/02 11:43:49;;;;;;;;;2.00;2.00;;;;;53.46;28.39;101413.88;4941021;28;45384;-91
2022/06/02 11:46:53;;;;;;;;;1.00;1.00;;;;;54.55;28.13;101422.13;4939109;28;47833;-92
2022/06/02 11:49:46;;;;;;;;;2.33;2.33;;;;;55.52;27.92;101414.50;4892585;28;45844;-91
2022/06/02 11:52:33;;;;;;;;;4.00;4.00;;;;;56.53;27.64;101417.25;4900467;28;45277;-90
2022/06/02 11:55:12;;;;;;;;;3.00;3.00;;;;;57.41;27.32;101418.63;4898360;28;45439;-90
2022/06/02 11:57:40;;;;;;;;;1.67;1.67;;;;;58.11;26.97;101418.56;4897589;28;46939;-91
2022/06/02 12:00:32;;;;;;;;;1.33;1.33;;;;;57.41;26.27;101419.50;4918525;28;45764;-88
2022/06/02 12:03:16;;;;;;;;;2.33;2.00;;;;;56.96;25.65;101412.94;5537695;22;47103;-96
2022/06/02 12:14:00;;;;;;;;;3.00;3.00;;;;;52.32;26.80;101398.41;5062595;22;45245;-96
2022/06/02 12:17:05;;;;;;;;;2.00;2.00;;;;;51.70;27.21;101402.25;5099814;27;44737;-96
2022/06/02 12:22:28;;;;;;;;;2.33;2.33;;;;;53.81;27.44;101365.41;5184176;22;46068;-96
2022/06/02 12:25:19;;;;;;;;;3.00;2.00;;;;;54.23;25.86;101384.16;5071596;22;45779;-96
2022/06/02 12:28:05;;;;;;;;;5.67;5.67;;;;;52.32;25.44;101370.44;5027984;28;45631;-96
2022/06/02 12:30:49;;;;;;;;;4.33;4.33;;;;;49.74;25.91;101375.75;5012559;28;45387;-96
2022/06/02 12:36:51;;;;;;;;;0.00;0.00;;;;;47.69;26.97;101367.31;5056554;22;44878;-96
2022/06/02 12:39:35;;;;;;;;;2.67;2.67;;;;;46.19;27.28;101359.16;5011639;28;45438;-96
2022/06/02 12:42:27;;;;;;;;;1.00;1.00;;;;;45.00;28.14;101362.97;5033164;28;45271;-96
2022/06/02 12:48:22;;;;;;;;;2.67;2.67;;;;;49.41;28.38;101348.78;5422392;22;46542;-96
2022/06/02 12:54:54;;;;;;;;;2.33;2.00;;;;;54.45;26.01;101344.75;4987813;28;46542;-96
2022/06/02 12:57:31;;;;;;;;;1.00;1.00;;;;;55.98;25.43;101344.31;4981266;28;45491;-94
2022/06/02 13:00:16;;;;;;;;;2.00;2.00;;;;;58.36;25.22;101349.81;4984952;28;44901;-95
2022/06/02 13:03:00;;;;;;;;;0.00;0.00;;;;;60.30;24.32;101352.38;4984260;28;44818;-95
2022/06/02 13:05:55;;;;;;;;;0.00;0.00;;;;;62.05;23.83;101357.59;4995740;28;47314;-96
2022/06/02 13:08:39;;;;;;;;;1.33;1.33;;;;;62.23;22.50;101350.72;4979934;28;44829;-95
2022/06/02 13:11:32;;;;;;;;;0.00;0.00;;;;;60.09;21.47;101353.94;4987657;28;45318;-94
2022/06/02 13:14:16;;;;;;;;;1.67;1.00;;;;;59.14;22.65;101345.34;4984081;28;45449;-96
2022/06/02 13:16:59;;;;;;;;;0.67;0.67;;;;;60.36;23.03;101347.69;4983642;28;47310;-96
2022/06/02 13:19:59;;;;;;;;;1.67;1.67;;;;;62.28;22.89;101347.94;4974075;28;45447;-96
2022/06/02 13:23:00;;;;;;;;;1.00;1.00;;;;;63.97;21.39;101365.88;4999718;28;45467;-96
2022/06/02 13:25:54;;;;;;;;;1.00;1.00;;;;;64.54;20.88;101358.56;4981145;28;44925;-96
2022/06/02 13:28:40;;;;;;;;;1.00;1.00;;;;;62.74;21.17;101352.34;4986235;28;47090;-94
2022/06/02 13:31:33;;;;;;;;;1.00;1.00;;;;;62.60;20.64;101345.38;4996933;28;44752;-95
2022/06/02 13:34:17;;;;;;;;;0.00;0.00;;;;;63.06;21.10;101347.75;4985494;28;45384;-96
2022/06/02 13:37:10;;;;;;;;;1.00;1.00;;;;;63.39;20.92;101343.97;4990794;28;45255;-96
2022/06/02 13:39:48;;;;;;;;;1.00;1.00;;;;;63.62;20.67;101354.06;4984379;28;46545;-96
2022/06/02 13:42:47;;;;;;;;;1.33;1.00;;;;;63.79;20.73;101350.13;4984685;28;45663;-96
2022/06/02 13:45:46;;;;;;;;;2.00;1.00;;;;;63.89;20.40;101347.31;4987420;28;45148;-95
2022/06/02 13:48:33;;;;;;;;;1.33;1.33;;;;;63.85;20.46;101343.28;4983763;28;45356;-96
2022/06/02 13:51:15;;;;;;;;;1.00;0.00;;;;;63.88;20.35;101344.72;4973537;28;46551;-95
2022/06/02 13:57:38;;;;;;;;;1.00;1.00;;;;;63.92;19.81;101342.22;4966572;28;45450;-94
2022/06/02 14:00:18;;;;;;;;;1.00;1.00;;;;;63.85;19.46;101337.59;4989748;28;45773;-96
2022/06/02 14:03:21;;;;;;;;;1.00;1.00;;;;;63.85;19.51;101340.44;4970079;28;46901;-94
2022/06/02 14:06:08;;;;;;;;;1.00;1.00;;;;;63.86;19.54;101333.63;4989927;28;45473;-96
2022/06/02 14:09:02;;;;;;;;;0.67;0.67;;;;;63.87;20.08;101328.78;4973408;28;46664;-95
2022/06/02 14:11:46;;;;;;;;;1.00;1.00;;;;;63.86;19.57;101327.06;4979859;28;45800;-96
2022/06/02 14:14:33;;;;;;;;;1.00;1.00;;;;;63.81;19.69;101322.22;4992898;28;47676;-96
2022/06/02 14:17:16;;;;;;;;;0.67;0.67;;;;;63.83;20.11;101321.94;4976081;28;45347;-93
2022/06/02 14:20:00;;;;;;;;;1.00;1.00;;;;;63.88;19.80;101322.81;4994649;28;45367;-95
2022/06/02 14:22:51;;;;;;;;;0.00;0.00;;;;;63.93;19.61;101316.28;4992516;28;45383;-94
2022/06/02 14:25:44;;;;;;;;;5.00;2.00;;;;;63.72;19.51;101318.19;4991919;28;45244;-96
2022/06/02 14:28:27;;;;;;;;;1.00;1.00;;;;;63.50;19.83;101305.88;4979293;28;45716;-96
2022/06/02 14:31:24;;;;;;;;;2.00;2.00;;;;;62.89;19.66;101305.28;4974572;28;45728;-93
2022/06/02 14:34:10;;;;;;;;;0.00;0.00;;;;;62.41;19.76;101278.44;5166494;22;45549;-96
2022/06/02 14:36:44;;;;;;;;;0.75;0.75;;;;;62.40;20.65;101290.09;4979060;28;45600;-96
2022/06/02 14:39:13;;;;;;;;;1.50;1.50;;;;;62.32;19.83;101288.59;4973343;28;45682;-95
2022/06/02 14:42:07;;;;;;;;;1.50;1.00;;;;;61.43;19.71;101288.44;4980792;28;46503;-95
2022/06/02 14:44:53;;;;;;;;;0.00;0.00;;;;;58.48;20.17;101277.25;4966943;28;45582;-95
2022/06/02 14:47:42;;;;;;;;;1.67;1.67;;;;;55.18;21.27;101271.13;4967008;28;45762;-95
2022/06/02 14:50:17;;;;;;;;;1.00;1.00;;;;;52.05;22.20;101273.00;4975824;28;45471;-94
2022/06/02 14:52:56;;;;;;;;;1.00;1.00;;;;;49.64;23.07;101263.53;4977126;28;45230;-94
2022/06/02 14:55:43;;;;;;;;;2.00;2.00;;;;;47.31;23.83;101257.28;4975032;28;45700;-94
2022/06/02 14:58:19;;;;;;;;;1.33;1.00;;;;;45.47;25.28;101266.31;4961437;28;46956;-92
2022/06/02 15:00:57;;;;;;;;;1.00;1.00;;;;;43.64;25.81;101263.47;4975171;28;45655;-94
2022/06/02 15:04:06;;;;;;;;;1.00;1.00;;;;;42.04;26.24;101256.66;4980715;28;45473;-94